Seawillow, Texas
Current Conditions -  °F | °C
As of 3:15 AM on Friday 24 Oct 2014 (Local Time) from KHYI Reporting Station
Clear Clear  
Wind Chill: 59°   Ceiling: Unl
Heat Index: 59°   Visibility: 10mi
Dew Point: 54°   Wind: 5mph
Humidity: 82%   Direction: 330°NNW
Pressure: 30.14"   Gusts: NA
Location:  29.8965°N, 97.6713°W
Report Text: KHYI 240815Z 33004KT 10SM CLR 15/12 A3014 RMK AO1
Loading
Personal Weather Stations






























Interactive Weather Map
Tropical Storm Tracking
New forecast layout! Learn more

10-Day Weather Forecast

Advertisements
Track Severe Weather on mobile